sensor_id;sensor_type;location;lat;lon;timestamp;pressure;altitude;pressure_sealevel;temperature;humidity
76484;BME280;65318;-33.924;18.406;2022-11-20T00:00:28;101168.48;;;23.31;36.86
76484;BME280;65318;-33.924;18.406;2022-11-20T00:02:53;101156.60;;;22.99;37.21
76484;BME280;65318;-33.924;18.406;2022-11-20T00:05:19;101149.14;;;22.79;37.15
76484;BME280;65318;-33.924;18.406;2022-11-20T00:07:45;101150.99;;;23.00;36.85
76484;BME280;65318;-33.924;18.406;2022-11-20T00:10:10;101147.54;;;23.07;37.12
76484;BME280;65318;-33.924;18.406;2022-11-20T00:12:36;101147.08;;;23.14;36.96
76484;BME280;65318;-33.924;18.406;2022-11-20T00:15:02;101142.00;;;23.16;36.93
76484;BME280;65318;-33.924;18.406;2022-11-20T00:17:27;101141.08;;;23.31;36.78
76484;BME280;65318;-33.924;18.406;2022-11-20T00:19:52;101138.96;;;22.92;37.25
76484;BME280;65318;-33.924;18.406;2022-11-20T00:22:18;101140.92;;;23.00;36.95
76484;BME280;65318;-33.924;18.406;2022-11-20T00:24:43;101129.90;;;22.55;37.42
76484;BME280;65318;-33.924;18.406;2022-11-20T00:27:09;101125.61;;;23.14;36.99
76484;BME280;65318;-33.924;18.406;2022-11-20T00:29:34;101128.64;;;23.14;37.00
76484;BME280;65318;-33.924;18.406;2022-11-20T00:32:00;101128.13;;;23.07;37.04
76484;BME280;65318;-33.924;18.406;2022-11-20T00:34:25;101126.90;;;22.80;37.08
76484;BME280;65318;-33.924;18.406;2022-11-20T00:36:51;101123.39;;;22.92;37.22
76484;BME280;65318;-33.924;18.406;2022-11-20T00:39:16;101122.39;;;22.73;37.14
76484;BME280;65318;-33.924;18.406;2022-11-20T00:41:42;101120.13;;;22.73;37.47
76484;BME280;65318;-33.924;18.406;2022-11-20T00:44:08;101117.89;;;22.77;37.42
76484;BME280;65318;-33.924;18.406;2022-11-20T00:46:32;101111.23;;;22.72;37.48
76484;BME280;65318;-33.924;18.406;2022-11-20T00:48:58;101105.60;;;23.35;37.25
76484;BME280;65318;-33.924;18.406;2022-11-20T00:51:25;101104.50;;;22.59;37.56
76484;BME280;65318;-33.924;18.406;2022-11-20T00:53:49;101103.10;;;22.85;37.55
76484;BME280;65318;-33.924;18.406;2022-11-20T00:56:17;101102.81;;;22.88;37.45
76484;BME280;65318;-33.924;18.406;2022-11-20T00:58:42;101101.56;;;22.77;37.56
76484;BME280;65318;-33.924;18.406;2022-11-20T01:01:07;101094.10;;;22.71;37.38
76484;BME280;65318;-33.924;18.406;2022-11-20T01:03:32;101096.00;;;22.46;37.66
76484;BME280;65318;-33.924;18.406;2022-11-20T01:06:01;101095.21;;;23.15;37.20
76484;BME280;65318;-33.924;18.406;2022-11-20T01:08:22;101086.85;;;22.91;37.38
76484;BME280;65318;-33.924;18.406;2022-11-20T01:10:48;101088.14;;;22.66;37.35
76484;BME280;65318;-33.924;18.406;2022-11-20T01:13:13;101086.29;;;22.67;37.28
76484;BME280;65318;-33.924;18.406;2022-11-20T01:15:39;101086.24;;;22.81;37.23
76484;BME280;65318;-33.924;18.406;2022-11-20T01:18:04;101087.49;;;23.06;37.13
76484;BME280;65318;-33.924;18.406;2022-11-20T01:20:30;101084.79;;;22.71;37.27
76484;BME280;65318;-33.924;18.406;2022-11-20T01:22:55;101089.91;;;22.50;37.49
76484;BME280;65318;-33.924;18.406;2022-11-20T01:25:21;101095.84;;;22.50;37.47
76484;BME280;65318;-33.924;18.406;2022-11-20T01:27:46;101095.81;;;22.47;37.49
76484;BME280;65318;-33.924;18.406;2022-11-20T01:30:13;101094.77;;;22.52;37.41
76484;BME280;65318;-33.924;18.406;2022-11-20T01:32:38;101092.61;;;23.02;37.12
76484;BME280;65318;-33.924;18.406;2022-11-20T01:35:04;101092.78;;;22.61;37.28
76484;BME280;65318;-33.924;18.406;2022-11-20T01:37:28;101094.83;;;22.89;36.91
76484;BME280;65318;-33.924;18.406;2022-11-20T01:39:54;101094.62;;;22.62;37.25
76484;BME280;65318;-33.924;18.406;2022-11-20T01:42:20;101097.46;;;22.65;37.23
76484;BME280;65318;-33.924;18.406;2022-11-20T01:44:51;101100.32;;;22.88;37.17
76484;BME280;65318;-33.924;18.406;2022-11-20T01:47:12;101099.71;;;22.66;37.17
76484;BME280;65318;-33.924;18.406;2022-11-20T01:49:39;101102.22;;;22.49;37.40
76484;BME280;65318;-33.924;18.406;2022-11-20T01:52:05;101098.85;;;22.24;37.67
76484;BME280;65318;-33.924;18.406;2022-11-20T01:54:31;101096.71;;;23.04;36.92
76484;BME280;65318;-33.924;18.406;2022-11-20T01:56:55;101095.26;;;22.83;37.20
76484;BME280;65318;-33.924;18.406;2022-11-20T01:59:19;101092.95;;;22.78;37.22
76484;BME280;65318;-33.924;18.406;2022-11-20T02:01:44;101093.94;;;22.32;37.49
76484;BME280;65318;-33.924;18.406;2022-11-20T02:04:10;101091.54;;;22.51;37.28
76484;BME280;65318;-33.924;18.406;2022-11-20T02:06:38;101090.66;;;22.42;37.31
76484;BME280;65318;-33.924;18.406;2022-11-20T02:09:01;101089.93;;;22.76;36.93
76484;BME280;65318;-33.924;18.406;2022-11-20T02:11:26;101084.25;;;22.72;37.25
76484;BME280;65318;-33.924;18.406;2022-11-20T02:13:52;101082.06;;;22.84;37.31
76484;BME280;65318;-33.924;18.406;2022-11-20T02:16:21;101085.96;;;22.76;37.15
76484;BME280;65318;-33.924;18.406;2022-11-20T02:18:43;101088.82;;;22.31;37.40
76484;BME280;65318;-33.924;18.406;2022-11-20T02:21:17;101083.71;;;22.38;37.30
76484;BME280;65318;-33.924;18.406;2022-11-20T02:23:39;101083.56;;;22.67;37.19
76484;BME280;65318;-33.924;18.406;2022-11-20T02:26:03;101077.60;;;22.65;37.23
76484;BME280;65318;-33.924;18.406;2022-11-20T02:28:25;101073.43;;;22.30;37.30
76484;BME280;65318;-33.924;18.406;2022-11-20T02:30:50;101068.78;;;22.58;37.30
76484;BME280;65318;-33.924;18.406;2022-11-20T02:33:16;101064.23;;;22.29;37.29
76484;BME280;65318;-33.924;18.406;2022-11-20T02:35:45;101060.93;;;22.72;37.15
76484;BME280;65318;-33.924;18.406;2022-11-20T02:38:07;101061.61;;;22.41;37.11
76484;BME280;65318;-33.924;18.406;2022-11-20T02:40:33;101059.18;;;22.43;37.36
76484;BME280;65318;-33.924;18.406;2022-11-20T02:42:58;101055.95;;;22.31;37.26
76484;BME280;65318;-33.924;18.406;2022-11-20T02:45:24;101053.44;;;22.46;37.27
76484;BME280;65318;-33.924;18.406;2022-11-20T02:47:49;101051.92;;;22.58;37.20
76484;BME280;65318;-33.924;18.406;2022-11-20T02:50:15;101046.70;;;22.03;37.52
76484;BME280;65318;-33.924;18.406;2022-11-20T02:52:40;101048.77;;;22.33;37.41
76484;BME280;65318;-33.924;18.406;2022-11-20T02:55:07;101049.45;;;22.14;37.36
76484;BME280;65318;-33.924;18.406;2022-11-20T02:57:32;101046.62;;;22.55;37.41
76484;BME280;65318;-33.924;18.406;2022-11-20T02:59:57;101043.37;;;22.29;37.39
76484;BME280;65318;-33.924;18.406;2022-11-20T03:02:22;101042.85;;;22.70;36.86
76484;BME280;65318;-33.924;18.406;2022-11-20T03:04:48;101042.97;;;22.86;36.99
76484;BME280;65318;-33.924;18.406;2022-11-20T03:07:14;101040.98;;;22.27;37.28
76484;BME280;65318;-33.924;18.406;2022-11-20T03:09:39;101031.09;;;22.53;36.97
76484;BME280;65318;-33.924;18.406;2022-11-20T03:12:05;101026.47;;;22.30;36.96
76484;BME280;65318;-33.924;18.406;2022-11-20T03:14:30;101021.43;;;22.26;36.96
76484;BME280;65318;-33.924;18.406;2022-11-20T03:16:56;101017.30;;;22.24;36.95
76484;BME280;65318;-33.924;18.406;2022-11-20T03:19:21;101011.75;;;21.99;37.17
76484;BME280;65318;-33.924;18.406;2022-11-20T03:21:47;101015.99;;;22.32;36.76
76484;BME280;65318;-33.924;18.406;2022-11-20T03:24:14;101021.15;;;22.38;36.68
76484;BME280;65318;-33.924;18.406;2022-11-20T03:26:39;101021.06;;;22.22;36.57
76484;BME280;65318;-33.924;18.406;2022-11-20T03:29:04;101016.85;;;22.24;37.05
76484;BME280;65318;-33.924;18.406;2022-11-20T03:31:32;101016.33;;;22.55;36.66
76484;BME280;65318;-33.924;18.406;2022-11-20T03:33:56;101017.56;;;22.02;36.73
76484;BME280;65318;-33.924;18.406;2022-11-20T03:36:22;101017.55;;;22.41;36.54
76484;BME280;65318;-33.924;18.406;2022-11-20T03:38:46;101010.56;;;22.15;36.83
76484;BME280;65318;-33.924;18.406;2022-11-20T03:41:13;101015.82;;;22.29;36.69
76484;BME280;65318;-33.924;18.406;2022-11-20T03:43:37;101018.28;;;22.55;36.64
76484;BME280;65318;-33.924;18.406;2022-11-20T03:46:03;101022.31;;;22.45;36.47
76484;BME280;65318;-33.924;18.406;2022-11-20T03:48:28;101018.75;;;22.25;36.68
76484;BME280;65318;-33.924;18.406;2022-11-20T03:50:54;101022.15;;;22.32;36.63
76484;BME280;65318;-33.924;18.406;2022-11-20T03:53:19;101024.12;;;22.15;36.76
76484;BME280;65318;-33.924;18.406;2022-11-20T03:55:44;101023.09;;;22.25;36.66
76484;BME280;65318;-33.924;18.406;2022-11-20T03:58:10;101030.20;;;22.57;35.93
76484;BME280;65318;-33.924;18.406;2022-11-20T04:00:36;101026.68;;;22.93;35.66
76484;BME280;65318;-33.924;18.406;2022-11-20T04:03:04;101033.52;;;22.81;35.16
76484;BME280;65318;-33.924;18.406;2022-11-20T04:05:27;101026.06;;;23.34;34.66
76484;BME280;65318;-33.924;18.406;2022-11-20T04:07:52;101024.00;;;23.59;34.40
76484;BME280;65318;-33.924;18.406;2022-11-20T04:10:18;101029.77;;;23.19;34.68
76484;BME280;65318;-33.924;18.406;2022-11-20T04:12:44;101026.30;;;23.22;34.74
76484;BME280;65318;-33.924;18.406;2022-11-20T04:15:09;101027.23;;;23.54;34.36
76484;BME280;65318;-33.924;18.406;2022-11-20T04:17:34;101025.86;;;23.93;34.01
76484;BME280;65318;-33.924;18.406;2022-11-20T04:19:59;101018.07;;;23.92;34.05
76484;BME280;65318;-33.924;18.406;2022-11-20T04:22:25;101012.45;;;24.57;33.43
76484;BME280;65318;-33.924;18.406;2022-11-20T04:24:51;101010.16;;;24.77;33.04
76484;BME280;65318;-33.924;18.406;2022-11-20T04:27:16;101008.24;;;24.74;33.17
76484;BME280;65318;-33.924;18.406;2022-11-20T04:29:42;101001.81;;;24.83;32.85
76484;BME280;65318;-33.924;18.406;2022-11-20T04:32:07;100993.61;;;24.58;33.19
76484;BME280;65318;-33.924;18.406;2022-11-20T04:34:33;100988.33;;;25.04;32.72
76484;BME280;65318;-33.924;18.406;2022-11-20T04:36:58;100988.52;;;25.19;32.63
76484;BME280;65318;-33.924;18.406;2022-11-20T04:39:23;100988.34;;;25.52;32.33
76484;BME280;65318;-33.924;18.406;2022-11-20T04:41:49;100985.06;;;25.52;32.38
76484;BME280;65318;-33.924;18.406;2022-11-20T04:44:14;100983.47;;;25.76;32.50
76484;BME280;65318;-33.924;18.406;2022-11-20T04:46:42;100979.60;;;26.03;32.03
76484;BME280;65318;-33.924;18.406;2022-11-20T04:49:06;100978.75;;;26.06;31.46
76484;BME280;65318;-33.924;18.406;2022-11-20T04:51:31;100981.51;;;26.68;31.26
76484;BME280;65318;-33.924;18.406;2022-11-20T04:53:57;100974.21;;;26.35;31.41
76484;BME280;65318;-33.924;18.406;2022-11-20T04:56:22;100972.84;;;27.22;30.43
76484;BME280;65318;-33.924;18.406;2022-11-20T04:58:48;100976.84;;;26.37;31.57
76484;BME280;65318;-33.924;18.406;2022-11-20T05:01:14;100976.27;;;26.17;31.65
76484;BME280;65318;-33.924;18.406;2022-11-20T05:03:39;100985.16;;;25.49;32.38
76484;BME280;65318;-33.924;18.406;2022-11-20T05:06:05;100980.77;;;26.24;31.71
76484;BME280;65318;-33.924;18.406;2022-11-20T05:08:30;100972.81;;;26.63;31.34
76484;BME280;65318;-33.924;18.406;2022-11-20T05:11:00;100973.50;;;25.92;31.87
76484;BME280;65318;-33.924;18.406;2022-11-20T05:13:20;100978.09;;;26.42;31.36
76484;BME280;65318;-33.924;18.406;2022-11-20T05:15:46;100973.01;;;27.69;30.22
76484;BME280;65318;-33.924;18.406;2022-11-20T05:18:11;100977.64;;;26.65;30.89
76484;BME280;65318;-33.924;18.406;2022-11-20T05:20:37;100980.22;;;26.89;30.45
76484;BME280;65318;-33.924;18.406;2022-11-20T05:23:03;100971.25;;;26.96;30.05
76484;BME280;65318;-33.924;18.406;2022-11-20T05:25:28;100974.94;;;26.68;30.31
76484;BME280;65318;-33.924;18.406;2022-11-20T05:27:54;100976.26;;;26.32;30.11
76484;BME280;65318;-33.924;18.406;2022-11-20T05:30:19;100978.61;;;26.42;30.14
76484;BME280;65318;-33.924;18.406;2022-11-20T05:32:44;100977.69;;;26.33;29.90
76484;BME280;65318;-33.924;18.406;2022-11-20T05:35:10;100980.17;;;26.38;29.89
76484;BME280;65318;-33.924;18.406;2022-11-20T05:37:35;100983.74;;;26.43;29.79
76484;BME280;65318;-33.924;18.406;2022-11-20T05:40:01;100986.95;;;26.95;29.60
76484;BME280;65318;-33.924;18.406;2022-11-20T05:42:26;100987.08;;;27.28;29.16
76484;BME280;65318;-33.924;18.406;2022-11-20T05:44:52;100985.64;;;26.73;29.67
76484;BME280;65318;-33.924;18.406;2022-11-20T05:47:18;100989.27;;;27.27;28.97
76484;BME280;65318;-33.924;18.406;2022-11-20T05:49:43;100994.10;;;27.06;29.37
76484;BME280;65318;-33.924;18.406;2022-11-20T05:52:08;100992.89;;;27.38;29.20
76484;BME280;65318;-33.924;18.406;2022-11-20T05:54:34;101001.96;;;27.07;29.11
76484;BME280;65318;-33.924;18.406;2022-11-20T05:57:00;100996.89;;;27.54;29.01
76484;BME280;65318;-33.924;18.406;2022-11-20T05:59:25;101004.48;;;27.34;29.10
76484;BME280;65318;-33.924;18.406;2022-11-20T06:01:50;101007.96;;;27.62;28.58
76484;BME280;65318;-33.924;18.406;2022-11-20T06:04:16;101010.25;;;27.65;28.62
76484;BME280;65318;-33.924;18.406;2022-11-20T06:06:41;101015.43;;;28.12;28.43
76484;BME280;65318;-33.924;18.406;2022-11-20T06:09:07;101019.33;;;27.68;28.72
76484;BME280;65318;-33.924;18.406;2022-11-20T06:11:33;101029.05;;;27.54;28.96
76484;BME280;65318;-33.924;18.406;2022-11-20T06:13:58;101021.65;;;27.51;28.79
76484;BME280;65318;-33.924;18.406;2022-11-20T06:16:23;101023.46;;;27.30;29.08
76484;BME280;65318;-33.924;18.406;2022-11-20T06:18:49;101017.72;;;27.95;28.26
76484;BME280;65318;-33.924;18.406;2022-11-20T06:21:17;101019.77;;;27.37;28.71
76484;BME280;65318;-33.924;18.406;2022-11-20T06:23:41;101015.84;;;27.90;28.22
76484;BME280;65318;-33.924;18.406;2022-11-20T06:26:07;101017.04;;;27.70;28.85
76484;BME280;65318;-33.924;18.406;2022-11-20T06:28:31;101020.35;;;28.67;28.01
76484;BME280;65318;-33.924;18.406;2022-11-20T06:30:57;101015.23;;;27.86;28.49
76484;BME280;65318;-33.924;18.406;2022-11-20T06:33:22;101017.59;;;28.25;28.52
76484;BME280;65318;-33.924;18.406;2022-11-20T06:35:48;101016.23;;;28.48;28.28
76484;BME280;65318;-33.924;18.406;2022-11-20T06:38:13;101018.86;;;28.58;28.25
76484;BME280;65318;-33.924;18.406;2022-11-20T06:40:40;101010.39;;;29.06;27.95
76484;BME280;65318;-33.924;18.406;2022-11-20T06:43:04;100999.22;;;28.77;28.17
76484;BME280;65318;-33.924;18.406;2022-11-20T06:45:29;101013.64;;;28.31;28.10
76484;BME280;65318;-33.924;18.406;2022-11-20T06:47:57;101007.33;;;29.17;27.52
76484;BME280;65318;-33.924;18.406;2022-11-20T06:50:20;100997.12;;;28.45;28.01
76484;BME280;65318;-33.924;18.406;2022-11-20T06:52:46;100993.83;;;28.95;27.65
76484;BME280;65318;-33.924;18.406;2022-11-20T06:55:11;100981.63;;;29.24;27.09
76484;BME280;65318;-33.924;18.406;2022-11-20T06:57:37;100994.24;;;28.92;27.72
76484;BME280;65318;-33.924;18.406;2022-11-20T07:00:03;100994.80;;;29.56;27.09
76484;BME280;65318;-33.924;18.406;2022-11-20T07:02:28;100991.43;;;29.20;27.40
76484;BME280;65318;-33.924;18.406;2022-11-20T07:04:53;100989.79;;;29.11;27.90
76484;BME280;65318;-33.924;18.406;2022-11-20T07:07:18;101001.40;;;29.26;27.52
76484;BME280;65318;-33.924;18.406;2022-11-20T07:09:44;100979.25;;;29.31;27.31
76484;BME280;65318;-33.924;18.406;2022-11-20T07:12:10;100988.52;;;28.16;28.02
76484;BME280;65318;-33.924;18.406;2022-11-20T07:14:35;100970.90;;;28.55;27.88
76484;BME280;65318;-33.924;18.406;2022-11-20T07:17:01;100973.35;;;28.77;27.69
76484;BME280;65318;-33.924;18.406;2022-11-20T07:19:26;100975.78;;;28.52;28.11
76484;BME280;65318;-33.924;18.406;2022-11-20T07:21:52;100978.18;;;29.16;27.47
76484;BME280;65318;-33.924;18.406;2022-11-20T07:24:17;100969.03;;;28.53;28.04
76484;BME280;65318;-33.924;18.406;2022-11-20T07:26:42;100969.06;;;28.75;27.81
76484;BME280;65318;-33.924;18.406;2022-11-20T07:29:08;100982.36;;;29.00;27.32
76484;BME280;65318;-33.924;18.406;2022-11-20T07:31:33;100977.06;;;28.42;27.76
76484;BME280;65318;-33.924;18.406;2022-11-20T07:33:59;100974.44;;;28.99;27.51
76484;BME280;65318;-33.924;18.406;2022-11-20T07:36:24;100970.00;;;28.56;27.64
76484;BME280;65318;-33.924;18.406;2022-11-20T07:38:50;100961.48;;;28.34;27.98
76484;BME280;65318;-33.924;18.406;2022-11-20T07:41:15;100955.14;;;28.76;27.55
76484;BME280;65318;-33.924;18.406;2022-11-20T07:43:42;100951.76;;;28.73;27.56
76484;BME280;65318;-33.924;18.406;2022-11-20T07:46:06;100951.20;;;28.85;27.70
76484;BME280;65318;-33.924;18.406;2022-11-20T07:48:32;100952.14;;;28.83;27.42
76484;BME280;65318;-33.924;18.406;2022-11-20T07:50:59;100945.36;;;28.87;27.46
76484;BME280;65318;-33.924;18.406;2022-11-20T07:53:23;100948.97;;;28.42;27.30
76484;BME280;65318;-33.924;18.406;2022-11-20T07:55:48;100950.68;;;28.77;26.95
76484;BME280;65318;-33.924;18.406;2022-11-20T07:58:14;100947.25;;;29.27;26.41
76484;BME280;65318;-33.924;18.406;2022-11-20T08:00:40;100951.80;;;28.77;26.64
76484;BME280;65318;-33.924;18.406;2022-11-20T08:03:05;100950.97;;;29.17;26.25
76484;BME280;65318;-33.924;18.406;2022-11-20T08:05:30;100951.83;;;28.58;26.82
76484;BME280;65318;-33.924;18.406;2022-11-20T08:07:56;100955.68;;;28.36;27.16
76484;BME280;65318;-33.924;18.406;2022-11-20T08:10:21;100949.83;;;28.51;27.05
76484;BME280;65318;-33.924;18.406;2022-11-20T08:12:48;100956.45;;;28.50;27.24
76484;BME280;65318;-33.924;18.406;2022-11-20T08:15:12;100952.94;;;28.24;27.01
76484;BME280;65318;-33.924;18.406;2022-11-20T08:17:38;100951.14;;;28.70;26.74
76484;BME280;65318;-33.924;18.406;2022-11-20T08:20:04;100952.64;;;28.19;27.35
76484;BME280;65318;-33.924;18.406;2022-11-20T08:22:29;100946.61;;;28.72;27.29
76484;BME280;65318;-33.924;18.406;2022-11-20T08:24:54;100947.53;;;28.04;27.56
76484;BME280;65318;-33.924;18.406;2022-11-20T08:27:20;100947.63;;;27.59;27.77
76484;BME280;65318;-33.924;18.406;2022-11-20T08:29:45;100953.86;;;27.81;27.65
76484;BME280;65318;-33.924;18.406;2022-11-20T08:32:11;100951.91;;;28.23;27.46
76484;BME280;65318;-33.924;18.406;2022-11-20T08:34:36;100949.62;;;28.54;27.25
76484;BME280;65318;-33.924;18.406;2022-11-20T08:37:03;100949.59;;;28.41;27.38
76484;BME280;65318;-33.924;18.406;2022-11-20T08:39:27;100945.29;;;28.19;27.38
76484;BME280;65318;-33.924;18.406;2022-11-20T08:41:53;100950.44;;;27.05;28.17
76484;BME280;65318;-33.924;18.406;2022-11-20T08:44:19;100948.82;;;28.16;27.58
76484;BME280;65318;-33.924;18.406;2022-11-20T08:46:44;100949.60;;;29.19;27.25
76484;BME280;65318;-33.924;18.406;2022-11-20T08:49:11;100954.17;;;27.68;27.79
76484;BME280;65318;-33.924;18.406;2022-11-20T08:51:36;100953.38;;;28.10;27.40
76484;BME280;65318;-33.924;18.406;2022-11-20T08:54:01;100954.70;;;28.28;27.43
76484;BME280;65318;-33.924;18.406;2022-11-20T08:56:26;100956.35;;;27.96;27.49
76484;BME280;65318;-33.924;18.406;2022-11-20T08:58:52;100956.37;;;28.29;27.34
76484;BME280;65318;-33.924;18.406;2022-11-20T09:01:18;100950.17;;;28.77;27.12
76484;BME280;65318;-33.924;18.406;2022-11-20T09:03:43;100945.23;;;28.88;27.07
76484;BME280;65318;-33.924;18.406;2022-11-20T09:06:08;100942.20;;;28.50;27.23
76484;BME280;65318;-33.924;18.406;2022-11-20T09:08:34;100941.23;;;28.13;27.84
76484;BME280;65318;-33.924;18.406;2022-11-20T09:10:59;100935.87;;;28.07;28.37
76484;BME280;65318;-33.924;18.406;2022-11-20T09:13:26;100934.86;;;27.24;29.06
76484;BME280;65318;-33.924;18.406;2022-11-20T09:15:53;100932.22;;;27.44;29.06
76484;BME280;65318;-33.924;18.406;2022-11-20T09:18:16;100932.57;;;26.83;29.34
76484;BME280;65318;-33.924;18.406;2022-11-20T09:20:42;100929.74;;;28.53;27.85
76484;BME280;65318;-33.924;18.406;2022-11-20T09:23:07;100925.55;;;28.56;27.97
76484;BME280;65318;-33.924;18.406;2022-11-20T09:25:32;100923.50;;;28.00;27.91
76484;BME280;65318;-33.924;18.406;2022-11-20T09:27:59;100922.54;;;28.10;28.00
76484;BME280;65318;-33.924;18.406;2022-11-20T09:30:24;100923.28;;;27.16;29.18
76484;BME280;65318;-33.924;18.406;2022-11-20T09:32:49;100918.16;;;28.00;28.18
76484;BME280;65318;-33.924;18.406;2022-11-20T09:35:14;100919.41;;;27.97;28.48
76484;BME280;65318;-33.924;18.406;2022-11-20T09:37:40;100917.59;;;29.03;27.82
76484;BME280;65318;-33.924;18.406;2022-11-20T09:40:06;100917.30;;;29.44;27.74
76484;BME280;65318;-33.924;18.406;2022-11-20T09:42:37;100916.96;;;27.96;28.90
76484;BME280;65318;-33.924;18.406;2022-11-20T09:45:06;100914.36;;;28.35;28.28
76484;BME280;65318;-33.924;18.406;2022-11-20T09:47:30;100914.35;;;27.98;28.55
76484;BME280;65318;-33.924;18.406;2022-11-20T09:49:59;100910.28;;;28.01;28.48
76484;BME280;65318;-33.924;18.406;2022-11-20T09:52:20;100906.11;;;27.25;29.28
76484;BME280;65318;-33.924;18.406;2022-11-20T09:54:39;100895.65;;;28.09;28.80
76484;BME280;65318;-33.924;18.406;2022-11-20T09:57:09;100892.19;;;28.30;28.73
76484;BME280;65318;-33.924;18.406;2022-11-20T09:59:34;100885.67;;;28.70;28.19
76484;BME280;65318;-33.924;18.406;2022-11-20T10:01:56;100885.94;;;28.14;28.78
76484;BME280;65318;-33.924;18.406;2022-11-20T10:04:21;100886.96;;;27.72;29.08
76484;BME280;65318;-33.924;18.406;2022-11-20T10:06:52;100888.61;;;27.76;29.14
76484;BME280;65318;-33.924;18.406;2022-11-20T10:09:21;100883.27;;;27.96;28.54
76484;BME280;65318;-33.924;18.406;2022-11-20T10:11:46;100878.22;;;27.56;29.05
76484;BME280;65318;-33.924;18.406;2022-11-20T10:14:11;100879.96;;;27.70;29.11
76484;BME280;65318;-33.924;18.406;2022-11-20T10:16:34;100871.43;;;26.75;29.79
76484;BME280;65318;-33.924;18.406;2022-11-20T10:19:03;100867.97;;;28.32;28.42
76484;BME280;65318;-33.924;18.406;2022-11-20T10:21:26;100863.47;;;28.38;28.66
76484;BME280;65318;-33.924;18.406;2022-11-20T10:23:57;100858.96;;;29.14;27.95
76484;BME280;65318;-33.924;18.406;2022-11-20T10:26:20;100860.89;;;29.25;27.63
76484;BME280;65318;-33.924;18.406;2022-11-20T10:28:46;100856.83;;;28.70;28.24
76484;BME280;65318;-33.924;18.406;2022-11-20T10:31:03;100851.45;;;28.53;28.71
76484;BME280;65318;-33.924;18.406;2022-11-20T10:33:29;100846.92;;;28.63;28.29
76484;BME280;65318;-33.924;18.406;2022-11-20T10:35:59;100847.40;;;27.33;29.54
76484;BME280;65318;-33.924;18.406;2022-11-20T10:38:20;100845.72;;;29.11;27.59
76484;BME280;65318;-33.924;18.406;2022-11-20T10:40:44;100839.72;;;27.89;29.02
76484;BME280;65318;-33.924;18.406;2022-11-20T10:43:13;100833.99;;;28.38;28.35
76484;BME280;65318;-33.924;18.406;2022-11-20T10:45:44;100838.59;;;27.83;29.01
76484;BME280;65318;-33.924;18.406;2022-11-20T10:48:09;100835.12;;;28.99;27.93
76484;BME280;65318;-33.924;18.406;2022-11-20T10:50:25;100832.38;;;27.70;29.16
76484;BME280;65318;-33.924;18.406;2022-11-20T10:53:00;100830.37;;;27.82;28.94
76484;BME280;65318;-33.924;18.406;2022-11-20T10:55:25;100827.91;;;27.67;28.89
76484;BME280;65318;-33.924;18.406;2022-11-20T10:57:52;100818.15;;;28.03;28.07
76484;BME280;65318;-33.924;18.406;2022-11-20T11:00:09;100820.79;;;27.34;28.24
76484;BME280;65318;-33.924;18.406;2022-11-20T11:02:35;100816.20;;;27.20;28.48
76484;BME280;65318;-33.924;18.406;2022-11-20T11:04:58;100810.49;;;28.35;27.68
76484;BME280;65318;-33.924;18.406;2022-11-20T11:07:27;100810.61;;;27.50;28.44
76484;BME280;65318;-33.924;18.406;2022-11-20T11:09:50;100813.59;;;26.49;29.28
76484;BME280;65318;-33.924;18.406;2022-11-20T11:12:14;100806.87;;;27.50;27.84
76484;BME280;65318;-33.924;18.406;2022-11-20T11:14:45;100800.68;;;27.60;27.61
76484;BME280;65318;-33.924;18.406;2022-11-20T11:19:30;100790.79;;;28.71;26.57
76484;BME280;65318;-33.924;18.406;2022-11-20T11:21:56;100785.73;;;28.03;27.99
76484;BME280;65318;-33.924;18.406;2022-11-20T11:24:23;100787.11;;;26.35;29.37
76484;BME280;65318;-33.924;18.406;2022-11-20T11:26:53;100784.09;;;27.56;28.11
76484;BME280;65318;-33.924;18.406;2022-11-20T11:29:18;100774.27;;;27.64;27.97
76484;BME280;65318;-33.924;18.406;2022-11-20T11:31:38;100770.26;;;28.43;27.03
76484;BME280;65318;-33.924;18.406;2022-11-20T11:34:07;100760.96;;;27.64;28.07
76484;BME280;65318;-33.924;18.406;2022-11-20T11:36:29;100755.98;;;28.21;27.82
76484;BME280;65318;-33.924;18.406;2022-11-20T11:38:55;100754.72;;;27.49;28.83
76484;BME280;65318;-33.924;18.406;2022-11-20T11:41:22;100749.09;;;27.48;28.61
76484;BME280;65318;-33.924;18.406;2022-11-20T11:43:51;100739.43;;;27.89;28.51
76484;BME280;65318;-33.924;18.406;2022-11-20T11:48:36;100735.18;;;27.46;28.51
76484;BME280;65318;-33.924;18.406;2022-11-20T11:51:02;100730.65;;;28.89;27.69
76484;BME280;65318;-33.924;18.406;2022-11-20T11:53:28;100727.89;;;28.11;27.76
76484;BME280;65318;-33.924;18.406;2022-11-20T11:55:58;100723.65;;;27.85;28.06
76484;BME280;65318;-33.924;18.406;2022-11-20T11:58:32;100718.22;;;27.62;28.67
76484;BME280;65318;-33.924;18.406;2022-11-20T12:00:53;100714.21;;;27.80;29.18
76484;BME280;65318;-33.924;18.406;2022-11-20T12:03:15;100708.83;;;27.50;28.99
76484;BME280;65318;-33.924;18.406;2022-11-20T12:05:40;100703.12;;;28.39;28.94
76484;BME280;65318;-33.924;18.406;2022-11-20T12:08:04;100699.63;;;27.65;28.19
76484;BME280;65318;-33.924;18.406;2022-11-20T12:10:36;100697.28;;;26.94;28.52
76484;BME280;65318;-33.924;18.406;2022-11-20T12:12:54;100700.25;;;27.77;28.18
76484;BME280;65318;-33.924;18.406;2022-11-20T12:15:25;100698.34;;;27.94;28.32
76484;BME280;65318;-33.924;18.406;2022-11-20T12:17:42;100694.45;;;28.14;28.22
76484;BME280;65318;-33.924;18.406;2022-11-20T12:20:12;100697.47;;;28.82;27.57
76484;BME280;65318;-33.924;18.406;2022-11-20T12:22:40;100696.99;;;28.16;28.72
76484;BME280;65318;-33.924;18.406;2022-11-20T12:25:03;100702.66;;;28.02;29.37